createdAt,value
2022-10-13T00:01:20.686Z,9.91
2022-10-13T00:03:50.466Z,9.89
2022-10-13T00:06:23.978Z,9.89
2022-10-13T00:09:02.595Z,9.88
2022-10-13T00:11:31.710Z,9.84
2022-10-13T00:14:01.749Z,9.81
2022-10-13T00:16:34.017Z,9.79
2022-10-13T00:19:02.288Z,9.78
2022-10-13T00:21:30.689Z,9.82
2022-10-13T00:24:00.075Z,9.87
2022-10-13T00:26:29.130Z,9.94
2022-10-13T00:28:58.475Z,10.00
2022-10-13T00:31:29.068Z,10.10
2022-10-13T00:34:04.867Z,10.20
2022-10-13T00:36:35.344Z,10.25
2022-10-13T00:39:05.193Z,10.31
2022-10-13T00:41:33.555Z,10.28
2022-10-13T00:44:08.854Z,10.36
2022-10-13T00:46:37.946Z,10.34
2022-10-13T00:49:09.090Z,10.36
2022-10-13T00:51:50.482Z,10.36
2022-10-13T00:54:23.373Z,10.34
2022-10-13T00:56:55.340Z,10.43
2022-10-13T00:59:27.212Z,10.44
2022-10-13T01:02:00.436Z,10.45
2022-10-13T01:04:33.299Z,10.43
2022-10-13T01:07:05.147Z,10.35
2022-10-13T01:09:37.797Z,10.42
2022-10-13T01:12:13.040Z,10.30
2022-10-13T01:14:50.626Z,10.43
2022-10-13T01:17:29.204Z,10.47
2022-10-13T01:20:31.735Z,10.51
2022-10-13T01:23:19.642Z,10.48
2022-10-13T01:26:15.981Z,10.41
2022-10-13T01:29:12.937Z,10.31
2022-10-13T01:31:50.867Z,10.24
2022-10-13T01:34:22.969Z,10.20
2022-10-13T01:36:58.782Z,10.14
2022-10-13T01:39:38.540Z,10.09
2022-10-13T01:42:19.545Z,10.09
2022-10-13T01:44:52.167Z,10.00
2022-10-13T01:47:23.120Z,10.08
2022-10-13T01:49:55.496Z,10.06
2022-10-13T01:52:29.748Z,10.06
2022-10-13T01:54:57.293Z,10.05
2022-10-13T01:57:32.516Z,10.06
2022-10-13T02:00:02.712Z,10.02
2022-10-13T02:02:54.927Z,9.98
2022-10-13T02:05:29.931Z,9.88
2022-10-13T02:08:13.252Z,9.91
2022-10-13T02:10:52.051Z,9.86
2022-10-13T02:13:26.024Z,9.81
2022-10-13T02:16:01.765Z,9.87
2022-10-13T02:18:34.251Z,9.90
2022-10-13T02:21:05.110Z,9.96
2022-10-13T02:23:33.102Z,10.01
2022-10-13T02:26:01.584Z,10.06
2022-10-13T02:28:30.381Z,10.09
2022-10-13T02:31:06.993Z,10.12
2022-10-13T02:33:42.614Z,10.15
2022-10-13T02:36:12.510Z,10.16
2022-10-13T02:38:40.330Z,10.16
2022-10-13T02:41:08.125Z,10.13
2022-10-13T02:43:37.851Z,10.10
2022-10-13T02:46:07.919Z,10.06
2022-10-13T02:48:35.885Z,10.03
2022-10-13T02:51:05.513Z,10.00
2022-10-13T02:53:33.398Z,9.97
2022-10-13T02:56:03.857Z,9.83
2022-10-13T02:58:31.865Z,9.91
2022-10-13T03:01:08.887Z,9.88
2022-10-13T03:03:37.450Z,9.82
2022-10-13T03:06:07.647Z,9.77
2022-10-13T03:08:36.578Z,9.75
2022-10-13T03:11:04.417Z,9.71
2022-10-13T03:13:57.784Z,9.70
2022-10-13T03:16:28.422Z,9.72
2022-10-13T03:18:56.223Z,9.75
2022-10-13T03:21:28.197Z,9.81
2022-10-13T03:23:55.937Z,9.86
2022-10-13T03:26:23.926Z,9.94
2022-10-13T03:28:52.142Z,9.99
2022-10-13T03:31:20.431Z,10.05
2022-10-13T03:33:48.368Z,10.07
2022-10-13T03:36:16.214Z,10.11
2022-10-13T03:38:53.006Z,10.14
2022-10-13T03:41:21.160Z,10.16
2022-10-13T03:43:51.092Z,10.16
2022-10-13T03:46:19.420Z,10.18
2022-10-13T03:48:49.188Z,10.06
2022-10-13T03:51:19.262Z,10.12
2022-10-13T03:53:49.584Z,10.13
2022-10-13T03:56:19.734Z,10.13
2022-10-13T03:58:59.386Z,10.17
2022-10-13T04:01:34.299Z,10.17
2022-10-13T04:04:27.919Z,10.22
2022-10-13T04:06:56.877Z,10.21
2022-10-13T04:09:26.919Z,10.19
2022-10-13T04:11:55.052Z,10.17
2022-10-13T04:14:23.023Z,10.17
2022-10-13T04:16:58.396Z,10.19
2022-10-13T04:19:29.797Z,10.17
2022-10-13T04:22:00.839Z,10.18
2022-10-13T04:24:33.839Z,10.19
2022-10-13T04:27:01.713Z,10.18
2022-10-13T04:29:31.788Z,10.20
2022-10-13T04:32:13.515Z,10.22
2022-10-13T04:34:42.105Z,10.21
2022-10-13T04:37:10.048Z,10.13
2022-10-13T04:39:39.154Z,10.21
2022-10-13T04:42:07.266Z,10.19
2022-10-13T04:44:39.081Z,10.15
2022-10-13T04:47:09.321Z,10.06
2022-10-13T04:49:37.321Z,10.14
2022-10-13T04:52:07.935Z,10.11
2022-10-13T04:54:35.689Z,10.00
2022-10-13T04:57:04.996Z,10.04
2022-10-13T04:59:32.884Z,10.08
2022-10-13T05:02:00.906Z,10.09
2022-10-13T05:04:29.015Z,10.13
2022-10-13T05:07:17.007Z,10.02
2022-10-13T05:09:45.406Z,10.17
2022-10-13T05:12:18.908Z,10.17
2022-10-13T05:14:47.277Z,10.17
2022-10-13T05:17:15.331Z,10.18
2022-10-13T05:19:43.095Z,10.22
2022-10-13T05:22:10.992Z,10.24
2022-10-13T05:24:42.341Z,10.24
2022-10-13T05:27:12.332Z,10.08
2022-10-13T05:29:43.081Z,10.21
2022-10-13T05:32:13.065Z,10.21
2022-10-13T05:34:41.108Z,10.21
2022-10-13T05:37:08.963Z,10.24
2022-10-13T05:39:36.810Z,10.25
2022-10-13T05:42:04.908Z,10.29
2022-10-13T05:44:32.725Z,10.32
2022-10-13T05:47:07.227Z,10.31
2022-10-13T05:49:39.712Z,10.35
2022-10-13T05:52:11.131Z,10.39
2022-10-13T05:54:42.781Z,10.38
2022-10-13T05:57:18.595Z,10.40
2022-10-13T05:59:55.880Z,10.41
2022-10-13T06:02:31.432Z,10.42
2022-10-13T06:04:59.328Z,10.42
2022-10-13T06:07:27.276Z,10.44
2022-10-13T06:09:55.488Z,10.47
2022-10-13T06:12:23.606Z,10.40
2022-10-13T06:14:51.918Z,10.53
2022-10-13T06:17:22.632Z,10.58
2022-10-13T06:19:54.460Z,10.64
2022-10-13T06:22:22.964Z,10.71
2022-10-13T06:24:54.169Z,10.75
2022-10-13T06:27:29.692Z,10.83
2022-10-13T06:30:01.318Z,10.78
2022-10-13T06:32:30.058Z,10.85
2022-10-13T06:34:59.344Z,10.83
2022-10-13T06:37:28.056Z,10.91
2022-10-13T06:39:55.990Z,10.95
2022-10-13T06:42:23.933Z,10.96
2022-10-13T06:45:11.921Z,10.94
2022-10-13T06:47:44.621Z,10.98
2022-10-13T06:50:17.291Z,11.01
2022-10-13T06:52:48.200Z,11.04
2022-10-13T06:55:16.970Z,11.09
2022-10-13T06:57:45.337Z,11.13
2022-10-13T07:00:22.429Z,11.19
2022-10-13T07:02:52.492Z,11.27
2022-10-13T07:05:21.899Z,11.29
2022-10-13T07:07:53.015Z,11.32
2022-10-13T07:10:23.614Z,11.38
2022-10-13T07:12:52.294Z,11.40
2022-10-13T07:15:20.194Z,11.43
2022-10-13T07:17:53.986Z,11.53
2022-10-13T07:20:23.890Z,11.62
2022-10-13T07:22:54.971Z,11.69
2022-10-13T07:25:22.922Z,11.75
2022-10-13T07:27:50.790Z,11.83
2022-10-13T07:30:21.662Z,11.94
2022-10-13T07:32:49.928Z,12.00
2022-10-13T07:35:23.192Z,12.07
2022-10-13T07:37:54.769Z,12.19
2022-10-13T07:40:22.848Z,12.27
2022-10-13T07:42:53.061Z,12.43
2022-10-13T07:45:24.316Z,12.60
2022-10-13T07:47:52.140Z,12.63
2022-10-13T07:50:20.205Z,12.70
2022-10-13T07:52:50.840Z,12.68
2022-10-13T07:55:28.221Z,12.64
2022-10-13T07:58:05.595Z,12.66
2022-10-13T08:00:34.975Z,12.65
2022-10-13T08:03:02.762Z,12.66
2022-10-13T08:05:36.705Z,12.74
2022-10-13T08:08:12.031Z,12.76
2022-10-13T08:10:46.320Z,12.82
2022-10-13T08:13:14.551Z,12.82
2022-10-13T08:15:43.121Z,12.96
2022-10-13T08:18:12.109Z,13.19
2022-10-13T08:20:44.081Z,13.35
2022-10-13T08:23:12.598Z,13.53
2022-10-13T08:25:47.641Z,13.67
2022-10-13T08:28:20.406Z,13.79
2022-10-13T08:30:48.521Z,13.86
2022-10-13T08:33:16.318Z,13.89
2022-10-13T08:35:51.723Z,14.07
2022-10-13T08:38:26.741Z,14.27
2022-10-13T08:41:03.161Z,14.31
2022-10-13T08:44:33.648Z,14.41
2022-10-13T08:46:52.385Z,14.35
2022-10-13T08:49:29.431Z,14.24
2022-10-13T08:51:58.981Z,14.17
2022-10-13T08:54:38.908Z,14.14
2022-10-13T08:57:09.865Z,14.15
2022-10-13T08:59:39.479Z,14.12
2022-10-13T09:02:14.668Z,14.07
2022-10-13T09:04:53.326Z,13.88
2022-10-13T09:07:25.465Z,13.99
2022-10-13T09:10:00.211Z,13.99
2022-10-13T09:12:34.007Z,14.02
2022-10-13T09:15:09.744Z,14.07
2022-10-13T09:17:43.924Z,14.13
2022-10-13T09:20:20.491Z,14.26
2022-10-13T09:23:03.568Z,14.41
2022-10-13T09:25:42.092Z,14.45
2022-10-13T09:28:24.166Z,14.52
2022-10-13T09:31:02.796Z,14.56
2022-10-13T09:33:38.127Z,14.58
2022-10-13T09:36:14.661Z,14.65
2022-10-13T09:39:06.575Z,14.76
2022-10-13T09:41:36.058Z,14.75
2022-10-13T09:44:13.781Z,14.89
2022-10-13T09:46:56.359Z,14.94
2022-10-13T09:49:35.628Z,14.96
2022-10-13T09:52:15.332Z,14.96
2022-10-13T09:54:48.346Z,15.06
2022-10-13T09:57:26.818Z,15.13
2022-10-13T10:00:03.694Z,15.17
2022-10-13T10:02:45.207Z,15.14
2022-10-13T10:05:25.896Z,15.20
2022-10-13T10:08:07.760Z,15.31
2022-10-13T10:10:42.089Z,15.34
2022-10-13T10:13:12.715Z,15.40
2022-10-13T10:15:53.473Z,15.27
2022-10-13T10:18:31.112Z,15.45
2022-10-13T10:21:06.314Z,15.44
2022-10-13T10:23:43.831Z,15.43
2022-10-13T10:26:20.757Z,15.38
2022-10-13T10:29:06.033Z,15.38
2022-10-13T10:31:59.037Z,15.39
2022-10-13T10:34:37.739Z,15.48
2022-10-13T10:37:21.285Z,15.49
2022-10-13T10:40:04.728Z,15.50
2022-10-13T10:43:15.368Z,15.67
2022-10-13T10:45:45.203Z,15.78
2022-10-13T10:48:20.940Z,15.87
2022-10-13T10:50:55.956Z,16.01
2022-10-13T10:53:35.111Z,16.15
2022-10-13T10:56:13.833Z,16.18
2022-10-13T10:58:53.727Z,16.29
2022-10-13T11:01:34.051Z,16.42
2022-10-13T11:04:31.907Z,16.50
2022-10-13T11:06:59.922Z,16.67
2022-10-13T11:10:03.202Z,16.68
2022-10-13T11:13:04.347Z,16.57
2022-10-13T11:15:43.471Z,16.50
2022-10-13T11:21:15.020Z,16.49
2022-10-13T11:23:48.995Z,16.47
2022-10-13T11:29:40.720Z,16.43
2022-10-13T11:32:55.346Z,16.41
2022-10-13T11:35:29.745Z,16.39
2022-10-13T11:38:24.463Z,16.39
2022-10-13T11:41:08.161Z,16.43
2022-10-13T11:43:49.807Z,16.55
2022-10-13T11:46:27.792Z,16.53
2022-10-13T11:49:37.004Z,16.54
2022-10-13T11:52:26.117Z,16.65
2022-10-13T11:54:58.573Z,16.75
2022-10-13T11:57:28.309Z,16.73
2022-10-13T11:59:57.848Z,16.81
2022-10-13T12:02:30.635Z,16.96
2022-10-13T12:05:05.397Z,17.04
2022-10-13T12:07:48.770Z,16.95
2022-10-13T12:10:21.603Z,17.08
2022-10-13T12:12:51.156Z,17.10
2022-10-13T12:15:32.941Z,17.15
2022-10-13T12:18:01.072Z,17.25
2022-10-13T12:20:32.004Z,17.35
2022-10-13T12:23:01.426Z,17.43
2022-10-13T12:25:31.315Z,17.52
2022-10-13T12:28:01.360Z,17.60
2022-10-13T12:30:31.126Z,17.70
2022-10-13T12:33:00.714Z,17.60
2022-10-13T12:35:33.250Z,17.72
2022-10-13T12:38:07.877Z,17.69
2022-10-13T12:40:36.291Z,17.65
2022-10-13T12:43:05.437Z,17.70
2022-10-13T12:45:35.447Z,17.75
2022-10-13T12:48:03.285Z,17.78
2022-10-13T12:50:42.456Z,17.82
2022-10-13T12:53:18.647Z,17.88
2022-10-13T12:55:58.488Z,17.80
2022-10-13T12:58:29.964Z,17.64
2022-10-13T13:01:22.754Z,17.46
2022-10-13T13:03:56.433Z,17.18
2022-10-13T13:06:34.851Z,17.33
2022-10-13T13:09:32.200Z,17.26
2022-10-13T13:12:23.749Z,17.12
2022-10-13T13:14:55.226Z,16.96
2022-10-13T13:17:57.089Z,17.03
2022-10-13T13:20:28.007Z,17.05
2022-10-13T13:22:56.270Z,17.08
2022-10-13T13:25:26.209Z,17.14
2022-10-13T13:27:54.508Z,17.20
2022-10-13T13:30:24.026Z,17.28
2022-10-13T13:32:52.130Z,17.31
2022-10-13T13:35:20.048Z,17.32
2022-10-13T13:37:50.467Z,17.14
2022-10-13T13:40:21.121Z,17.23
2022-10-13T13:42:50.320Z,17.16
2022-10-13T13:45:20.237Z,17.08
2022-10-13T13:47:51.448Z,17.04
2022-10-13T13:50:23.687Z,16.99
2022-10-13T13:52:57.349Z,17.10
2022-10-13T13:55:25.888Z,17.14
2022-10-13T13:57:55.025Z,17.13
2022-10-13T14:00:23.921Z,17.11
2022-10-13T14:02:56.556Z,17.06
2022-10-13T14:05:24.707Z,17.04
2022-10-13T14:07:54.891Z,17.00
2022-10-13T14:10:22.768Z,16.97
2022-10-13T14:12:50.690Z,16.87
2022-10-13T14:15:19.882Z,17.00
2022-10-13T14:17:47.671Z,17.01
2022-10-13T14:20:15.578Z,17.04
2022-10-13T14:22:45.507Z,17.07
2022-10-13T14:25:15.146Z,17.09
2022-10-13T14:27:42.950Z,17.17
2022-10-13T14:30:11.954Z,17.03
2022-10-13T14:32:41.254Z,17.34
2022-10-13T14:35:09.632Z,17.44
2022-10-13T14:37:37.819Z,17.46
2022-10-13T14:40:06.669Z,17.46
2022-10-13T14:42:39.143Z,17.43
2022-10-13T14:45:08.272Z,17.42
2022-10-13T14:47:36.123Z,17.38
2022-10-13T14:50:05.781Z,17.37
2022-10-13T14:52:33.556Z,17.32
2022-10-13T14:55:01.376Z,17.24
2022-10-13T14:57:29.088Z,17.17
2022-10-13T15:00:00.877Z,17.14
2022-10-13T15:02:29.878Z,17.11
2022-10-13T15:05:05.901Z,17.06
2022-10-13T15:07:41.478Z,17.01
2022-10-13T15:10:09.890Z,16.98
2022-10-13T15:12:37.786Z,16.96
2022-10-13T15:15:06.391Z,16.95
2022-10-13T15:17:34.222Z,16.96
2022-10-13T15:20:01.941Z,16.93
2022-10-13T15:22:31.261Z,16.73
2022-10-13T15:24:59.468Z,16.85
2022-10-13T15:27:27.509Z,16.76
2022-10-13T15:29:55.358Z,16.65
2022-10-13T15:32:23.438Z,16.52
2022-10-13T15:34:55.805Z,16.39
2022-10-13T15:37:23.565Z,16.07
2022-10-13T15:39:57.234Z,16.14
2022-10-13T15:42:25.612Z,16.04
2022-10-13T15:45:10.864Z,15.94
2022-10-13T15:47:39.522Z,15.84
2022-10-13T15:50:08.290Z,15.76
2022-10-13T15:52:39.337Z,15.69
2022-10-13T15:55:09.758Z,15.64
2022-10-13T15:57:37.678Z,15.65
2022-10-13T16:00:07.456Z,15.64
2022-10-13T16:02:46.059Z,15.49
2022-10-13T16:05:13.937Z,15.45
2022-10-13T16:07:42.384Z,15.52
2022-10-13T16:10:13.799Z,15.62
2022-10-13T16:12:45.618Z,15.61
2022-10-13T16:15:18.411Z,15.60
2022-10-13T16:17:46.385Z,15.58
2022-10-13T16:20:14.348Z,15.53
2022-10-13T16:22:42.461Z,15.50
2022-10-13T16:25:11.979Z,15.48
2022-10-13T16:27:44.007Z,15.44
2022-10-13T16:30:13.162Z,15.42
2022-10-13T16:32:41.222Z,15.37
2022-10-13T16:35:09.494Z,15.34
2022-10-13T16:37:37.221Z,15.30
2022-10-13T16:40:05.441Z,15.23
2022-10-13T16:42:34.782Z,15.18
2022-10-13T16:45:02.742Z,15.16
2022-10-13T16:47:30.567Z,15.15
2022-10-13T16:49:58.354Z,15.13
2022-10-13T16:52:26.170Z,15.09
2022-10-13T16:54:53.947Z,15.00
2022-10-13T16:57:22.006Z,14.94
2022-10-13T16:59:51.490Z,14.87
2022-10-13T17:02:19.309Z,14.78
2022-10-13T17:04:49.270Z,14.70
2022-10-13T17:07:20.257Z,14.69
2022-10-13T17:09:55.911Z,14.70
2022-10-13T17:12:23.687Z,14.76
2022-10-13T17:14:52.876Z,14.80
2022-10-13T17:17:21.023Z,14.83
2022-10-13T17:19:49.227Z,14.80
2022-10-13T17:22:17.077Z,14.72
2022-10-13T17:24:48.194Z,14.62
2022-10-13T17:27:16.549Z,14.53
2022-10-13T17:29:46.860Z,14.47
2022-10-13T17:32:16.048Z,14.46
2022-10-13T17:34:44.099Z,14.44
2022-10-13T17:37:14.370Z,14.44
2022-10-13T17:39:42.298Z,14.43
2022-10-13T17:42:10.063Z,14.48
2022-10-13T17:44:37.824Z,14.53
2022-10-13T17:47:07.138Z,14.59
2022-10-13T17:49:36.428Z,14.62
2022-10-13T17:52:04.215Z,14.65
2022-10-13T17:54:31.939Z,14.64
2022-10-13T17:56:59.707Z,14.50
2022-10-13T17:59:28.689Z,14.55
2022-10-13T18:01:56.523Z,14.49
2022-10-13T18:04:24.428Z,14.41
2022-10-13T18:06:54.070Z,14.37
2022-10-13T18:09:24.398Z,14.32
2022-10-13T18:11:54.741Z,14.30
2022-10-13T18:14:25.365Z,14.21
2022-10-13T18:16:53.919Z,14.41
2022-10-13T18:19:22.288Z,14.50
2022-10-13T18:21:50.683Z,14.56
2022-10-13T18:24:20.401Z,14.60
2022-10-13T18:26:48.955Z,14.65
2022-10-13T18:29:16.706Z,14.68
2022-10-13T18:31:44.813Z,14.67
2022-10-13T18:34:14.308Z,14.66
2022-10-13T18:36:43.747Z,14.71
2022-10-13T18:39:13.734Z,14.68
2022-10-13T18:41:44.818Z,14.68
2022-10-13T18:44:12.927Z,14.63
2022-10-13T18:46:42.542Z,14.66
2022-10-13T18:49:13.512Z,14.63
2022-10-13T18:51:43.101Z,14.62
2022-10-13T18:54:11.466Z,14.50
2022-10-13T18:56:39.699Z,14.62
2022-10-13T18:59:15.015Z,14.60
2022-10-13T19:01:49.907Z,14.59
2022-10-13T19:04:18.067Z,14.58
2022-10-13T19:06:46.672Z,14.41
2022-10-13T19:09:17.442Z,14.54
2022-10-13T19:11:45.367Z,14.55
2022-10-13T19:14:18.358Z,14.53
2022-10-13T19:16:46.220Z,14.49
2022-10-13T19:19:14.341Z,14.50
2022-10-13T19:21:42.221Z,14.49
2022-10-13T19:24:10.757Z,14.46
2022-10-13T19:26:39.438Z,14.36
2022-10-13T19:29:09.400Z,14.43
2022-10-13T19:31:39.824Z,14.42
2022-10-13T19:34:11.864Z,14.40
2022-10-13T19:36:41.484Z,14.39
2022-10-13T19:39:14.760Z,14.38
2022-10-13T19:41:42.806Z,14.33
2022-10-13T19:44:10.813Z,14.31
2022-10-13T19:46:44.145Z,14.30
2022-10-13T19:49:13.997Z,14.29
2022-10-13T19:51:45.970Z,14.27
2022-10-13T19:54:14.578Z,14.24
2022-10-13T19:56:47.176Z,14.23
2022-10-13T19:59:15.984Z,14.20
2022-10-13T20:01:45.424Z,14.17
2022-10-13T20:04:18.373Z,14.07
2022-10-13T20:06:46.291Z,14.13
2022-10-13T20:09:14.324Z,14.13
2022-10-13T20:11:42.305Z,14.12
2022-10-13T20:14:10.315Z,14.13
2022-10-13T20:16:38.290Z,14.11
2022-10-13T20:19:07.881Z,14.01
2022-10-13T20:21:35.766Z,14.10
2022-10-13T20:24:03.652Z,14.10
2022-10-13T20:26:31.496Z,14.09
2022-10-13T20:29:00.519Z,14.09
2022-10-13T20:31:28.615Z,14.08
2022-10-13T20:33:57.592Z,14.06
2022-10-13T20:36:38.368Z,13.99
2022-10-13T20:39:11.903Z,13.95
2022-10-13T20:41:39.947Z,13.91
2022-10-13T20:44:07.748Z,13.90
2022-10-13T20:46:41.594Z,13.89
2022-10-13T20:49:11.920Z,13.87
2022-10-13T20:51:48.164Z,13.90
2022-10-13T20:54:17.014Z,13.90
2022-10-13T20:57:03.406Z,13.93
2022-10-13T20:59:31.367Z,13.93
2022-10-13T21:01:59.119Z,13.97
2022-10-13T21:04:30.091Z,13.94
2022-10-13T21:06:59.396Z,13.94
2022-10-13T21:09:27.788Z,13.91
2022-10-13T21:11:58.560Z,13.87
2022-10-13T21:14:27.095Z,13.79
2022-10-13T21:16:55.238Z,13.79
2022-10-13T21:19:29.186Z,13.80
2022-10-13T21:21:59.230Z,13.60
2022-10-13T21:24:31.150Z,13.78
2022-10-13T21:26:59.321Z,13.65
2022-10-13T21:29:34.808Z,13.74
2022-10-13T21:32:02.704Z,13.48
2022-10-13T21:34:30.670Z,13.66
2022-10-13T21:36:58.504Z,13.64
2022-10-13T21:39:26.438Z,13.64
2022-10-13T21:41:55.791Z,13.65
2022-10-13T21:44:39.361Z,13.70
2022-10-13T21:47:10.513Z,13.73
2022-10-13T21:49:38.785Z,13.76
2022-10-13T21:52:06.720Z,13.81
2022-10-13T21:54:34.602Z,13.78
2022-10-13T21:57:03.926Z,13.82
2022-10-13T21:59:31.729Z,13.82
2022-10-13T22:01:59.607Z,13.81
2022-10-13T22:04:27.769Z,13.83
2022-10-13T22:06:59.004Z,13.84
2022-10-13T22:09:27.088Z,13.83
2022-10-13T22:11:59.638Z,13.79
2022-10-13T22:14:31.793Z,13.82
2022-10-13T22:16:59.624Z,13.81
2022-10-13T22:19:27.568Z,13.78
2022-10-13T22:21:55.301Z,13.78
2022-10-13T22:24:23.361Z,13.78
2022-10-13T22:26:51.740Z,13.75
2022-10-13T22:29:23.826Z,13.76
2022-10-13T22:31:56.814Z,13.76
2022-10-13T22:34:25.905Z,13.73
2022-10-13T22:36:54.677Z,13.70
2022-10-13T22:39:23.389Z,13.71
2022-10-13T22:41:54.201Z,13.66
2022-10-13T22:44:24.839Z,13.66
2022-10-13T22:47:01.500Z,13.64
2022-10-13T22:49:33.277Z,13.62
2022-10-13T22:52:01.229Z,13.52
2022-10-13T22:54:29.986Z,13.49
2022-10-13T22:57:00.875Z,13.50
2022-10-13T22:59:28.920Z,13.47
2022-10-13T23:01:58.219Z,13.47
2022-10-13T23:04:26.395Z,13.47
2022-10-13T23:06:54.215Z,13.49
2022-10-13T23:09:22.114Z,13.50
2022-10-13T23:11:50.038Z,13.49
2022-10-13T23:14:19.860Z,13.51
2022-10-13T23:16:53.656Z,13.50
2022-10-13T23:19:22.919Z,13.36
2022-10-13T23:21:51.202Z,13.51
2022-10-13T23:24:21.246Z,13.53
2022-10-13T23:26:54.438Z,13.53
2022-10-13T23:29:24.744Z,13.51
2022-10-13T23:31:55.588Z,13.50
2022-10-13T23:34:25.384Z,13.50
2022-10-13T23:36:53.102Z,13.50
2022-10-13T23:39:20.951Z,13.49
2022-10-13T23:41:48.808Z,13.30
2022-10-13T23:44:20.103Z,13.47
2022-10-13T23:46:48.680Z,13.50
2022-10-13T23:49:24.947Z,13.52
2022-10-13T23:51:54.231Z,13.31
2022-10-13T23:54:28.537Z,13.54
2022-10-13T23:56:58.528Z,13.55
2022-10-13T23:59:26.728Z,13.55
